Time;durP1;ratioP1;P1;durP2;ratioP2;P2;SDS_P1;SDS_P2;PMS_P1;PMS_P2;Temp;Humidity;BMP_temperature;BMP_pressure;BME280_temperature;BME280_humidity;BME280_pressure;Samples;Min_cycle;Max_cycle;Signal;HPM_P1;HPM_P2
2023/07/29 00:00:00;;;;;;;3.38;1.20;;;;;;;15.82;100.00;96968.63;5062972;28;20043;-51
2023/07/29 00:02:29;;;;;;;2.40;1.08;;;;;;;15.90;100.00;96967.16;5063152;28;20128;-55
2023/07/29 00:04:56;;;;;;;2.25;1.23;;;;;;;15.93;100.00;96950.19;5062925;28;20068;-53
2023/07/29 00:07:22;;;;;;;1.95;1.20;;;;;;;15.95;100.00;96950.72;5063474;28;20040;-53
2023/07/29 00:09:49;;;;;;;4.65;1.23;;;;;;;15.93;100.00;96941.19;5062052;28;20112;-52
2023/07/29 00:12:16;;;;;;;4.43;1.38;;;;;;;15.87;100.00;96932.25;5063044;28;20503;-52
2023/07/29 00:14:42;;;;;;;2.17;1.00;;;;;;;15.88;100.00;96954.91;5060123;28;20731;-50
2023/07/29 00:17:09;;;;;;;4.88;1.17;;;;;;;15.89;100.00;96962.00;5063541;28;20514;-53
2023/07/29 00:19:35;;;;;;;2.90;1.10;;;;;;;15.92;100.00;96961.41;5062568;28;20037;-52
2023/07/29 00:22:02;;;;;;;7.22;1.45;;;;;;;15.86;100.00;96953.28;5062751;28;20043;-54
2023/07/29 00:24:29;;;;;;;3.17;1.25;;;;;;;15.91;100.00;96960.59;5061036;28;20047;-55
2023/07/29 00:26:56;;;;;;;6.13;1.33;;;;;;;15.92;100.00;96970.38;5063378;28;20067;-55
2023/07/29 00:29:22;;;;;;;2.58;1.10;;;;;;;15.89;100.00;96960.09;5062560;28;20051;-54
2023/07/29 00:31:50;;;;;;;3.53;1.15;;;;;;;15.89;100.00;96968.28;5061752;28;20090;-54
2023/07/29 00:34:19;;;;;;;2.10;1.20;;;;;;;15.93;100.00;96966.56;5062307;28;20486;-54
2023/07/29 00:36:46;;;;;;;3.72;1.52;;;;;;;15.93;100.00;96963.84;5061411;28;20106;-49
2023/07/29 00:39:12;;;;;;;3.15;1.30;;;;;;;16.01;100.00;96945.19;5060652;28;20117;-53
2023/07/29 00:41:40;;;;;;;2.67;1.27;;;;;;;16.05;100.00;96938.84;5061021;28;20123;-53
2023/07/29 00:44:06;;;;;;;5.10;1.13;;;;;;;16.17;100.00;96919.22;5062202;28;20048;-54
2023/07/29 00:46:37;;;;;;;4.53;1.35;;;;;;;16.21;100.00;96911.25;5060562;28;20071;-52
2023/07/29 00:49:04;;;;;;;;;;;;;;;16.27;100.00;96901.03;5061709;28;20531;-49
2023/07/29 00:51:31;;;;;;;4.88;2.28;;;;;;;16.28;100.00;96898.00;5060604;28;19930;-53
2023/07/29 00:53:57;;;;;;;3.72;1.00;;;;;;;16.25;100.00;96901.34;5061994;28;20044;-53
2023/07/29 00:56:24;;;;;;;5.22;1.27;;;;;;;16.21;100.00;96892.94;5060094;28;20132;-51
2023/07/29 00:58:51;;;;;;;2.45;1.02;;;;;;;16.14;100.00;96906.16;5059987;28;20565;-51
2023/07/29 01:01:18;;;;;;;2.92;1.30;;;;;;;16.08;100.00;96915.56;5065254;28;20047;-51
2023/07/29 01:03:45;;;;;;;2.15;1.10;;;;;;;16.11;100.00;96912.25;5061705;28;20518;-54
2023/07/29 01:06:21;;;;;;;3.28;1.45;;;;;;;16.13;100.00;96907.28;5063481;28;20045;-53
2023/07/29 01:09:07;;;;;;;5.40;1.25;;;;;;;16.07;100.00;96919.44;5060927;28;20115;-55
2023/07/29 01:12:15;;;;;;;3.65;1.52;;;;;;;16.16;100.00;96903.97;5059994;28;20152;-54
2023/07/29 01:14:49;;;;;;;3.67;1.30;;;;;;;16.14;100.00;96900.72;5049300;28;20140;-52
2023/07/29 01:17:23;;;;;;;4.13;1.30;;;;;;;16.06;100.00;96921.34;5063092;28;20550;-53
2023/07/29 01:20:01;;;;;;;3.45;1.10;;;;;;;16.02;100.00;96931.22;5059572;28;20049;-52
2023/07/29 01:22:27;;;;;;;4.35;1.23;;;;;;;16.02;100.00;96938.59;5056688;28;20036;-53
2023/07/29 01:24:54;;;;;;;9.45;1.98;;;;;;;16.04;100.00;96922.75;5059411;28;20106;-54
2023/07/29 01:27:20;;;;;;;4.22;1.33;;;;;;;16.06;100.00;96928.69;5060393;28;20059;-52
2023/07/29 01:29:47;;;;;;;5.50;1.25;;;;;;;16.02;100.00;96914.84;5059926;28;20044;-51
2023/07/29 01:32:23;;;;;;;3.28;1.40;;;;;;;15.97;100.00;96928.59;5060745;28;20041;-53
2023/07/29 01:35:08;;;;;;;3.38;1.13;;;;;;;15.95;100.00;96928.88;5060937;28;20045;-53
2023/07/29 01:37:37;;;;;;;3.67;1.20;;;;;;;15.90;100.00;96928.13;5060358;28;20048;-52
2023/07/29 01:40:08;;;;;;;6.97;1.60;;;;;;;15.84;100.00;96925.47;5059396;28;20110;-50
2023/07/29 01:42:34;;;;;;;4.13;1.60;;;;;;;15.74;100.00;96945.56;5060523;28;20045;-50
2023/07/29 01:45:01;;;;;;;3.63;1.35;;;;;;;15.72;100.00;96953.25;5061078;28;20102;-49
2023/07/29 01:47:28;;;;;;;3.65;1.55;;;;;;;15.74;100.00;96951.00;5066240;28;20046;-53
2023/07/29 01:49:54;;;;;;;3.22;1.40;;;;;;;15.72;100.00;96946.97;5061904;28;20033;-51
2023/07/29 01:52:21;;;;;;;3.28;1.20;;;;;;;15.76;100.00;96941.72;5064330;28;20054;-53
2023/07/29 01:54:47;;;;;;;2.83;1.55;;;;;;;15.69;100.00;96925.72;5063508;28;20037;-51
2023/07/29 01:57:14;;;;;;;2.70;1.30;;;;;;;15.69;100.00;96942.91;5065809;28;20040;-53
2023/07/29 01:59:40;;;;;;;6.57;1.55;;;;;;;15.77;100.00;96929.69;5062353;28;20101;-52
2023/07/29 02:02:07;;;;;;;3.55;1.40;;;;;;;15.83;100.00;96910.22;5062340;28;20060;-52
2023/07/29 02:04:34;;;;;;;3.03;1.70;;;;;;;15.71;100.00;96910.66;5064288;28;20552;-52
2023/07/29 02:07:01;;;;;;;2.83;1.23;;;;;;;15.69;100.00;96915.63;5064845;28;20064;-52
2023/07/29 02:09:27;;;;;;;6.35;1.30;;;;;;;15.59;100.00;96921.25;5063712;28;20044;-55
2023/07/29 02:11:54;;;;;;;6.50;1.75;;;;;;;15.52;100.00;96928.97;5063344;28;20118;-53
2023/07/29 02:14:21;;;;;;;3.90;1.40;;;;;;;15.50;100.00;96939.34;5061847;28;20048;-50
2023/07/29 02:16:47;;;;;;;3.15;1.30;;;;;;;15.51;100.00;96939.06;5063232;28;20047;-50
2023/07/29 02:19:14;;;;;;;2.13;1.10;;;;;;;15.55;100.00;96926.47;5064868;28;20044;-54
2023/07/29 02:21:40;;;;;;;4.35;1.60;;;;;;;15.57;100.00;96921.53;5063688;28;20044;-50
2023/07/29 02:24:07;;;;;;;5.40;1.42;;;;;;;15.54;100.00;96926.75;5064887;28;20048;-52
2023/07/29 02:26:33;;;;;;;4.55;1.35;;;;;;;15.52;100.00;96927.03;5063607;28;20073;-51
2023/07/29 02:29:01;;;;;;;4.72;1.80;;;;;;;15.55;100.00;96922.94;5062952;28;20087;-53
2023/07/29 02:31:27;;;;;;;3.53;1.30;;;;;;;15.56;100.00;96908.19;5064463;28;20546;-50
2023/07/29 02:33:54;;;;;;;3.05;1.13;;;;;;;15.57;100.00;96926.16;5062872;28;20128;-50
2023/07/29 02:36:20;;;;;;;4.32;1.20;;;;;;;15.62;100.00;96917.09;5060144;28;20049;-54
2023/07/29 02:38:47;;;;;;;3.85;1.40;;;;;;;15.48;100.00;96894.09;5062327;28;20591;-52
2023/07/29 02:41:15;;;;;;;4.18;1.40;;;;;;;15.48;100.00;96926.00;5062365;28;20573;-52
2023/07/29 02:43:43;;;;;;;5.95;1.55;;;;;;;15.55;100.00;96917.47;5062823;28;20774;-52
2023/07/29 02:46:09;;;;;;;4.43;1.70;;;;;;;15.58;100.00;96920.41;5062510;28;20078;-50
2023/07/29 02:48:36;;;;;;;5.28;1.58;;;;;;;15.60;100.00;96922.84;5064091;28;20040;-52
2023/07/29 02:51:03;;;;;;;5.50;1.52;;;;;;;15.69;100.00;96899.25;5065524;28;20044;-52
2023/07/29 02:53:29;;;;;;;3.72;1.42;;;;;;;15.78;100.00;96865.81;5064124;28;20116;-51
2023/07/29 02:55:56;;;;;;;4.25;1.52;;;;;;;15.77;100.00;96862.25;5060065;28;20036;-52
2023/07/29 02:58:22;;;;;;;5.18;1.80;;;;;;;15.78;100.00;96860.34;5062022;28;20060;-53
2023/07/29 03:00:50;;;;;;;7.30;1.55;;;;;;;15.82;100.00;96845.00;5062553;28;20098;-51
2023/07/29 03:03:18;;;;;;;5.13;1.85;;;;;;;15.78;100.00;96836.59;5058940;28;20051;-53
2023/07/29 03:05:45;;;;;;;4.57;1.50;;;;;;;15.79;100.00;96830.03;5061585;28;20036;-53
2023/07/29 03:08:12;;;;;;;4.00;1.33;;;;;;;15.78;100.00;96841.25;5064163;28;20048;-52
2023/07/29 03:10:39;;;;;;;3.08;1.40;;;;;;;15.79;100.00;96827.31;5061430;28;20025;-53
2023/07/29 03:13:05;;;;;;;4.72;1.40;;;;;;;15.88;100.00;96818.44;5061475;28;20049;-53
2023/07/29 03:15:33;;;;;;;4.38;1.20;;;;;;;15.92;100.00;96811.25;5062736;28;20048;-50
2023/07/29 03:18:00;;;;;;;4.68;1.42;;;;;;;15.98;100.00;96801.88;5062307;28;20047;-52
2023/07/29 03:20:27;;;;;;;3.35;1.55;;;;;;;15.98;100.00;96813.63;5061959;28;20036;-52
2023/07/29 03:22:53;;;;;;;3.58;1.30;;;;;;;16.02;100.00;96805.63;5061470;28;20044;-53
2023/07/29 03:25:20;;;;;;;2.20;1.17;;;;;;;16.04;100.00;96803.41;5061649;28;20064;-54
2023/07/29 03:27:49;;;;;;;4.75;1.35;;;;;;;16.04;100.00;96810.78;5062159;28;20688;-50
2023/07/29 03:30:19;;;;;;;5.63;1.35;;;;;;;15.96;100.00;96810.38;5062508;28;20592;-52
2023/07/29 03:32:46;;;;;;;5.68;1.48;;;;;;;15.93;100.00;96810.97;5062266;28;20040;-53
2023/07/29 03:35:13;;;;;;;2.38;1.20;;;;;;;15.92;100.00;96806.59;5062119;28;20043;-53
2023/07/29 03:37:40;;;;;;;6.05;1.98;;;;;;;15.94;100.00;96819.94;5062596;28;20048;-52
2023/07/29 03:40:08;;;;;;;2.72;1.42;;;;;;;15.98;100.00;96810.06;5061757;28;20041;-50
2023/07/29 03:42:36;;;;;;;4.25;1.40;;;;;;;15.95;100.00;96807.94;5067565;28;20117;-51
2023/07/29 03:45:02;;;;;;;2.58;1.20;;;;;;;15.97;100.00;96812.00;5060959;28;20036;-51
2023/07/29 03:47:29;;;;;;;4.28;1.50;;;;;;;15.96;100.00;96809.56;5062082;28;20055;-52
2023/07/29 03:49:57;;;;;;;8.80;2.20;;;;;;;15.96;100.00;96810.38;5060557;28;20063;-50
2023/07/29 03:52:23;;;;;;;3.35;1.58;;;;;;;15.89;100.00;96830.97;5061768;28;20086;-53
2023/07/29 03:54:50;;;;;;;4.95;1.40;;;;;;;15.91;100.00;96837.72;5060696;28;20056;-54
2023/07/29 03:57:17;;;;;;;3.00;1.48;;;;;;;15.91;100.00;96837.72;5062200;28;20047;-53
2023/07/29 03:59:43;;;;;;;6.82;1.60;;;;;;;15.89;100.00;96830.97;5059846;28;20128;-54
2023/07/29 04:02:10;;;;;;;6.03;2.47;;;;;;;15.90;100.00;96822.47;5061740;28;20048;-50
2023/07/29 04:04:36;;;;;;;4.63;1.48;;;;;;;15.88;100.00;96832.88;5060043;28;20095;-53
2023/07/29 04:07:03;;;;;;;3.28;1.25;;;;;;;15.87;100.00;96823.06;5061035;28;20062;-53
2023/07/29 04:09:30;;;;;;;4.15;1.65;;;;;;;15.93;100.00;96821.88;5060336;28;20102;-53
2023/07/29 04:11:56;;;;;;;4.50;1.45;;;;;;;15.92;100.00;96808.53;5060679;28;20044;-52
2023/07/29 04:14:23;;;;;;;2.55;1.23;;;;;;;15.92;100.00;96820.25;5061749;28;20036;-52
2023/07/29 04:16:49;;;;;;;3.10;1.83;;;;;;;15.93;100.00;96818.34;5060101;28;20047;-53
2023/07/29 04:19:16;;;;;;;3.58;1.48;;;;;;;15.90;100.00;96846.22;5061203;28;20036;-52
2023/07/29 04:21:42;;;;;;;8.65;1.52;;;;;;;15.86;100.00;96870.59;5059627;28;20138;-52
2023/07/29 04:24:09;;;;;;;6.97;1.77;;;;;;;15.94;100.00;96850.81;5062510;28;20449;-52
2023/07/29 04:26:36;;;;;;;3.78;1.70;;;;;;;15.81;100.00;96882.38;5073367;28;20645;-53
2023/07/29 04:29:02;;;;;;;3.30;1.48;;;;;;;15.77;100.00;96886.81;5060604;28;20106;-53
2023/07/29 04:31:29;;;;;;;4.53;1.75;;;;;;;15.73;100.00;96913.09;5060600;28;20044;-54
2023/07/29 04:33:55;;;;;;;7.68;1.90;;;;;;;15.75;100.00;96932.72;5059479;28;20048;-54
2023/07/29 04:36:22;;;;;;;4.75;1.50;;;;;;;15.73;100.00;96960.31;5060483;28;20040;-52
2023/07/29 04:38:48;;;;;;;5.05;2.20;;;;;;;15.73;100.00;96971.22;5061211;28;20036;-54
2023/07/29 04:41:15;;;;;;;4.82;1.63;;;;;;;15.71;100.00;96984.34;5061740;28;20044;-51
2023/07/29 04:43:41;;;;;;;6.05;1.85;;;;;;;15.70;100.00;96980.00;5062788;28;20051;-53
2023/07/29 04:46:08;;;;;;;3.63;1.70;;;;;;;15.73;100.00;96976.69;5059179;28;20045;-54
2023/07/29 04:48:35;;;;;;;3.83;1.80;;;;;;;15.74;100.00;96961.94;5058504;28;20552;-55
2023/07/29 04:51:02;;;;;;;4.47;1.52;;;;;;;15.79;100.00;96961.06;5059385;28;20406;-53
2023/07/29 04:53:28;;;;;;;3.80;1.63;;;;;;;15.80;100.00;96954.47;5059393;28;20528;-52
2023/07/29 04:55:55;;;;;;;5.18;1.80;;;;;;;15.87;100.00;96959.56;5059291;28;20055;-52
2023/07/29 04:58:22;;;;;;;3.20;1.52;;;;;;;15.87;100.00;96948.63;5060439;28;20072;-53
2023/07/29 05:00:48;;;;;;;6.00;1.85;;;;;;;15.85;100.00;96939.94;5057855;28;20040;-54
2023/07/29 05:03:15;;;;;;;6.07;1.73;;;;;;;15.93;100.00;96950.19;5060191;28;20064;-54
2023/07/29 05:05:41;;;;;;;3.92;1.65;;;;;;;16.02;100.00;96941.34;5058872;28;20057;-55
2023/07/29 05:08:08;;;;;;;2.88;1.42;;;;;;;16.03;100.00;96912.94;5057855;28;20048;-53
2023/07/29 05:10:34;;;;;;;3.20;1.30;;;;;;;16.06;100.00;96898.66;5056343;28;20098;-54
2023/07/29 05:13:01;;;;;;;2.92;1.38;;;;;;;16.10;100.00;96902.41;5060963;28;20040;-55
2023/07/29 05:15:28;;;;;;;3.53;1.33;;;;;;;16.18;100.00;96885.34;5061563;28;20067;-53
2023/07/29 05:17:54;;;;;;;2.88;1.30;;;;;;;16.15;100.00;96883.22;5060031;28;20047;-54
2023/07/29 05:20:21;;;;;;;5.57;1.40;;;;;;;16.14;100.00;96891.72;5062106;28;20040;-51
2023/07/29 05:22:47;;;;;;;3.33;1.42;;;;;;;16.18;100.00;96868.97;5061840;28;20105;-51
2023/07/29 05:25:14;;;;;;;4.68;1.42;;;;;;;16.20;100.00;96872.22;5064116;28;20040;-51
2023/07/29 05:27:41;;;;;;;4.32;1.30;;;;;;;16.26;100.00;96848.34;5063208;28;20029;-52
2023/07/29 05:30:08;;;;;;;2.85;1.27;;;;;;;16.30;100.00;96837.63;5062556;28;20051;-52
2023/07/29 05:32:35;;;;;;;4.68;1.40;;;;;;;16.35;100.00;96843.78;5061653;28;20048;-52
2023/07/29 05:35:02;;;;;;;2.75;1.05;;;;;;;16.40;100.00;96831.94;5063221;28;20049;-54
2023/07/29 05:37:28;;;;;;;2.58;1.05;;;;;;;16.46;100.00;96825.28;5064566;28;20044;-55
2023/07/29 05:39:55;;;;;;;2.40;1.00;;;;;;;16.57;100.00;96817.69;5062696;28;20052;-54
2023/07/29 05:42:21;;;;;;;5.38;1.15;;;;;;;16.62;100.00;96817.56;5065471;28;20052;-57
2023/07/29 05:44:48;;;;;;;4.20;1.13;;;;;;;16.70;100.00;96805.09;5061311;28;20376;-54
2023/07/29 05:47:14;;;;;;;2.45;1.20;;;;;;;16.88;100.00;96802.56;5059129;28;20052;-54
2023/07/29 05:49:41;;;;;;;3.67;1.45;;;;;;;16.97;100.00;96792.50;5060615;28;20051;-54
2023/07/29 05:52:08;;;;;;;2.97;1.00;;;;;;;16.97;100.00;96792.50;5061437;28;20552;-53
2023/07/29 05:54:34;;;;;;;3.60;1.85;;;;;;;16.94;100.00;96798.59;5061542;28;20807;-54
2023/07/29 05:57:01;;;;;;;3.53;1.20;;;;;;;16.95;100.00;96789.25;5063190;28;20477;-55
2023/07/29 05:59:29;;;;;;;3.90;1.17;;;;;;;17.01;100.00;96793.50;5062327;28;20140;-55
2023/07/29 06:01:56;;;;;;;2.38;1.00;;;;;;;17.05;100.00;96788.25;5061423;28;20041;-53
2023/07/29 06:04:22;;;;;;;2.78;1.10;;;;;;;17.06;100.00;96780.88;5063684;28;20096;-54
2023/07/29 06:06:49;;;;;;;4.03;1.70;;;;;;;17.12;100.00;96785.91;5061350;28;20041;-55
2023/07/29 06:09:16;;;;;;;2.70;1.20;;;;;;;17.16;100.00;96786.91;5064468;28;20545;-55
2023/07/29 06:11:42;;;;;;;3.45;1.30;;;;;;;17.15;100.00;96789.94;5061115;28;20040;-53
2023/07/29 06:14:09;;;;;;;3.65;1.00;;;;;;;17.15;100.00;96782.53;5062761;28;20127;-54
2023/07/29 06:16:36;;;;;;;3.47;1.17;;;;;;;17.17;100.00;96795.91;5062359;28;20052;-53
2023/07/29 06:19:03;;;;;;;1.98;1.08;;;;;;;17.15;100.00;96795.41;5062990;28;20130;-51
2023/07/29 06:21:30;;;;;;;3.55;1.10;;;;;;;17.15;100.00;96801.69;5062580;28;20447;-53
2023/07/29 06:23:56;;;;;;;2.60;1.05;;;;;;;17.25;100.00;96797.09;5063558;28;20032;-53
2023/07/29 06:26:23;;;;;;;1.88;1.05;;;;;;;17.34;100.00;96803.44;5063540;28;20052;-51
2023/07/29 06:28:50;;;;;;;2.97;1.20;;;;;;;17.44;100.00;96802.41;5064791;28;20261;-54
2023/07/29 06:31:16;;;;;;;3.35;1.13;;;;;;;17.50;100.00;96800.31;5064493;28;20063;-55
2023/07/29 06:33:43;;;;;;;2.38;1.00;;;;;;;17.55;100.00;96801.00;5063320;28;20048;-55
2023/07/29 06:36:09;;;;;;;1.90;0.90;;;;;;;17.60;100.00;96802.81;5061666;28;20491;-55
2023/07/29 06:38:36;;;;;;;2.75;0.95;;;;;;;17.55;100.00;96801.00;5064229;28;20044;-54
2023/07/29 06:41:04;;;;;;;2.28;1.10;;;;;;;17.61;100.00;96804.44;5063522;28;20068;-54
2023/07/29 06:43:30;;;;;;;2.28;1.10;;;;;;;17.60;100.00;96804.75;5064801;28;20044;-56
2023/07/29 06:45:57;;;;;;;2.83;1.30;;;;;;;17.67;100.00;96802.38;5063074;28;20037;-56
2023/07/29 06:48:23;;;;;;;2.60;0.98;;;;;;;17.72;100.00;96815.16;5064941;28;20127;-55
2023/07/29 06:50:50;;;;;;;3.60;1.27;;;;;;;17.72;100.00;96809.66;5062344;28;20040;-54
2023/07/29 06:53:17;;;;;;;3.28;1.30;;;;;;;17.73;100.00;96817.53;5063943;28;20047;-55
2023/07/29 06:55:44;;;;;;;2.13;1.02;;;;;;;17.75;100.00;96830.94;5063065;28;20055;-52
2023/07/29 06:58:10;;;;;;;3.10;1.40;;;;;;;17.75;100.00;96836.41;5064462;28;20522;-55
2023/07/29 07:00:37;;;;;;;2.60;1.17;;;;;;;17.78;100.00;96831.13;5063627;28;20048;-55
2023/07/29 07:03:04;;;;;;;6.50;2.58;;;;;;;17.81;100.00;96833.22;5064156;28;20073;-55
2023/07/29 07:05:30;;;;;;;2.53;1.23;;;;;;;17.75;100.00;96841.88;5064057;28;20063;-53
2023/07/29 07:07:57;;;;;;;3.28;1.35;;;;;;;17.75;100.00;96841.88;5063389;28;20119;-54
2023/07/29 07:10:23;;;;;;;2.92;1.20;;;;;;;17.74;100.00;96840.25;5063567;28;20568;-52
2023/07/29 07:12:50;;;;;;;2.42;1.15;;;;;;;17.81;100.00;96837.91;5062595;28;20055;-55
2023/07/29 07:15:16;;;;;;;6.50;1.10;;;;;;;17.85;100.00;96830.69;5062602;28;20580;-54
2023/07/29 07:17:43;;;;;;;2.60;0.93;;;;;;;17.97;100.00;96827.34;5061658;28;20048;-52
2023/07/29 07:20:10;;;;;;;2.70;1.15;;;;;;;18.12;100.00;96833.56;5058699;28;20070;-53
2023/07/29 07:22:37;;;;;;;3.10;1.20;;;;;;;18.18;100.00;96824.09;5059249;28;20044;-55
2023/07/29 07:25:04;;;;;;;2.03;1.00;;;;;;;18.28;100.00;96826.56;5061252;28;20044;-52
2023/07/29 07:27:35;;;;;;;2.67;1.30;;;;;;;18.31;100.00;96825.94;5060415;28;20037;-51
2023/07/29 07:30:01;;;;;;;5.93;1.52;;;;;;;18.32;100.00;96832.22;5059885;28;20044;-52
2023/07/29 07:32:28;;;;;;;4.10;1.30;;;;;;;18.36;100.00;96832.41;5064699;28;20040;-54
2023/07/29 07:34:54;;;;;;;4.07;1.10;;;;;;;18.28;100.00;96831.25;5062347;28;20131;-54
2023/07/29 07:37:21;;;;;;;2.72;1.10;;;;;;;18.39;100.00;96838.03;5066368;28;20114;-56
2023/07/29 07:39:47;;;;;;;2.28;1.25;;;;;;;18.43;100.00;96833.56;5061445;28;20044;-55
2023/07/29 07:42:14;;;;;;;2.50;0.80;;;;;;;18.50;100.00;96830.34;5063210;28;20056;-55
2023/07/29 07:44:40;;;;;;;2.03;1.17;;;;;;;18.54;100.00;96825.06;5060870;28;20051;-55
2023/07/29 07:47:07;;;;;;;3.35;1.30;;;;;;;18.70;100.00;96828.16;5061036;28;20045;-54
2023/07/29 07:49:33;;;;;;;3.72;1.25;;;;;;;18.87;100.00;96821.09;5061078;28;20045;-53
2023/07/29 07:52:00;;;;;;;3.88;1.48;;;;;;;19.15;100.00;96818.06;5059516;28;20073;-53
2023/07/29 07:54:26;;;;;;;2.47;1.20;;;;;;;19.36;100.00;96813.56;5060637;28;20040;-54
2023/07/29 07:56:53;;;;;;;1.88;1.02;;;;;;;19.45;100.00;96807.25;5059642;28;20538;-55
2023/07/29 07:59:19;;;;;;;2.22;1.10;;;;;;;19.69;100.00;96805.94;5061502;28;20045;-53
2023/07/29 08:01:46;;;;;;;2.53;1.20;;;;;;;19.93;100.00;96807.34;5059759;28;20043;-56
2023/07/29 08:04:13;;;;;;;2.85;1.10;;;;;;;20.22;100.00;96808.56;5061145;28;20488;-54
2023/07/29 08:06:40;;;;;;;2.05;1.00;;;;;;;20.31;100.00;96814.03;5062419;28;20063;-54
2023/07/29 08:09:06;;;;;;;2.38;1.02;;;;;;;20.31;100.00;96820.31;5061279;28;20435;-53
2023/07/29 08:11:33;;;;;;;1.92;1.08;;;;;;;20.26;100.00;96828.75;5059398;28;20044;-53
2023/07/29 08:13:59;;;;;;;1.65;0.85;;;;;;;20.07;100.00;96832.72;5060423;28;20051;-55
2023/07/29 08:16:26;;;;;;;2.40;1.00;;;;;;;19.82;100.00;96837.91;5061036;28;20055;-53
2023/07/29 08:18:53;;;;;;;1.65;0.82;;;;;;;19.68;100.00;96840.03;5060026;28;20635;-53
2023/07/29 08:21:19;;;;;;;1.92;0.85;;;;;;;19.47;100.00;96832.47;5059700;28;20044;-52
2023/07/29 08:23:46;;;;;;;3.17;1.65;;;;;;;19.31;100.00;96841.16;5058604;28;20193;-53
2023/07/29 08:26:12;;;;;;;5.88;1.17;;;;;;;19.25;100.00;96842.47;5061503;28;20044;-52
2023/07/29 08:28:40;;;;;;;2.92;1.00;;;;;;;19.45;100.00;96845.69;5059573;28;20105;-54
2023/07/29 08:31:06;;;;;;;1.83;0.90;;;;;;;19.60;100.00;96849.88;5061366;28;20036;-56
2023/07/29 08:33:34;;;;;;;2.10;1.00;;;;;;;19.80;100.00;96839.38;5063654;28;20048;-52
2023/07/29 08:36:01;;;;;;;5.60;1.25;;;;;;;20.05;100.00;96834.97;5059559;28;20158;-54
2023/07/29 08:38:28;;;;;;;2.83;1.10;;;;;;;20.11;100.00;96841.09;5060528;28;20051;-54
2023/07/29 08:41:16;;;;;;;2.42;1.08;;;;;;;20.35;100.00;96839.72;5060315;28;20649;-55
2023/07/29 08:44:07;;;;;;;2.00;1.00;;;;;;;20.60;100.00;96831.69;5060998;28;20131;-55
2023/07/29 08:46:39;;;;;;;3.25;0.85;;;;;;;20.67;100.00;96832.78;5059036;28;20072;-55
2023/07/29 08:49:07;;;;;;;1.90;0.80;;;;;;;20.60;100.00;96829.75;5060024;28;20036;-55
2023/07/29 08:51:34;;;;;;;2.35;1.20;;;;;;;20.60;100.00;96832.50;5060531;28;20048;-57
2023/07/29 08:54:01;;;;;;;2.03;0.80;;;;;;;20.75;100.00;96842.13;5058070;28;20040;-56
2023/07/29 08:56:30;;;;;;;3.83;1.92;;;;;;;20.77;100.00;96845.34;5056666;28;20044;-55
2023/07/29 08:58:57;;;;;;;3.10;1.00;;;;;;;20.85;100.00;96835.44;5059173;28;20044;-56
2023/07/29 09:01:24;;;;;;;2.20;0.90;;;;;;;20.63;100.00;96834.59;5059779;28;20037;-54
2023/07/29 09:03:51;;;;;;;1.77;0.90;;;;;;;20.61;100.00;96836.88;5058941;28;20418;-54
2023/07/29 09:06:19;;;;;;;3.05;0.88;;;;;;;20.72;100.00;96823.53;5060618;28;20068;-57
2023/07/29 09:08:48;;;;;;;1.45;0.70;;;;;;;20.91;100.00;96820.38;5059066;28;20051;-56
2023/07/29 09:11:17;;;;;;;3.10;0.90;;;;;;;21.18;100.00;96817.44;5060131;28;20049;-56
2023/07/29 09:13:43;;;;;;;1.95;0.88;;;;;;;21.38;100.00;96806.75;5059110;28;20608;-55
2023/07/29 09:16:10;;;;;;;2.05;1.00;;;;;;;21.42;100.00;96815.97;5059433;28;20036;-54
2023/07/29 09:18:36;;;;;;;2.75;0.98;;;;;;;21.55;100.00;96814.84;5059129;28;20127;-54
2023/07/29 09:21:03;;;;;;;2.25;0.82;;;;;;;21.75;94.94;96811.63;5058927;28;20037;-55
2023/07/29 09:23:50;;;;;;;2.58;0.90;;;;;;;21.63;91.10;96810.41;5059164;28;20068;-51
2023/07/29 09:26:27;;;;;;;3.10;0.80;;;;;;;21.59;92.63;96798.44;5058072;28;20052;-56
2023/07/29 09:28:55;;;;;;;1.30;0.80;;;;;;;21.56;94.71;96796.41;5058521;28;20044;-55
2023/07/29 09:31:23;;;;;;;1.65;0.60;;;;;;;21.44;91.62;96802.63;5059045;28;20044;-54
2023/07/29 09:33:57;;;;;;;2.47;0.98;;;;;;;21.33;91.89;96804.22;5057784;28;20182;-55
2023/07/29 09:36:25;;;;;;;1.48;0.80;;;;;;;21.00;93.94;96814.81;5058523;28;20749;-55
2023/07/29 09:38:55;;;;;;;3.00;0.90;;;;;;;20.99;95.46;96820.63;5058269;28;20051;-54
2023/07/29 09:41:27;;;;;;;2.03;0.73;;;;;;;20.96;95.01;96821.34;5059716;28;20040;-52
2023/07/29 09:43:55;;;;;;;;;;;;;;;20.93;95.81;96825.53;5061976;28;20044;-55
2023/07/29 09:46:23;;;;;;;4.40;1.30;;;;;;;20.66;95.38;96831.19;5059641;28;19920;-52
2023/07/29 09:48:54;;;;;;;2.58;0.93;;;;;;;20.39;98.13;96841.47;5061497;28;20044;-54
2023/07/29 09:51:21;;;;;;;2.33;1.00;;;;;;;20.18;98.85;96854.31;5057939;28;20040;-55
2023/07/29 09:53:50;;;;;;;4.03;0.95;;;;;;;19.62;100.00;96869.59;5058818;28;20045;-55
2023/07/29 09:56:16;;;;;;;2.15;0.80;;;;;;;19.45;100.00;96879.44;5060665;28;20041;-53
2023/07/29 09:58:47;;;;;;;2.70;0.80;;;;;;;19.56;100.00;96876.38;5058374;28;20044;-53
2023/07/29 10:01:14;;;;;;;4.20;1.30;;;;;;;19.60;100.00;96872.66;5059439;28;20148;-53
2023/07/29 10:03:42;;;;;;;1.50;0.80;;;;;;;19.82;100.00;96859.88;5059258;28;20110;-54
2023/07/29 10:06:09;;;;;;;2.25;0.88;;;;;;;19.89;100.00;96846.47;5060153;28;20070;-51
2023/07/29 10:08:38;;;;;;;1.35;0.95;;;;;;;19.92;100.00;96849.69;5063763;28;20055;-51
2023/07/29 10:11:06;;;;;;;2.78;0.88;;;;;;;19.81;100.00;96849.22;5062249;28;20040;-54
2023/07/29 10:13:34;;;;;;;2.72;1.02;;;;;;;19.78;100.00;96845.19;5063313;28;20059;-53
2023/07/29 10:16:03;;;;;;;2.13;1.10;;;;;;;19.85;100.00;96841.94;5062049;28;20045;-55
2023/07/29 10:18:32;;;;;;;1.27;0.70;;;;;;;20.14;100.00;96852.25;5062455;28;20109;-55
2023/07/29 10:21:00;;;;;;;2.05;0.90;;;;;;;20.32;100.00;96852.19;5061075;28;20530;-52
2023/07/29 10:23:31;;;;;;;2.38;0.73;;;;;;;20.50;100.00;96852.13;5066763;28;20090;-55
2023/07/29 10:26:05;;;;;;;2.47;0.82;;;;;;;20.85;100.00;96849.19;5060140;28;20507;-57
2023/07/29 10:28:32;;;;;;;1.17;0.63;;;;;;;21.11;100.00;96851.00;5065041;28;20044;-57
2023/07/29 10:30:59;;;;;;;1.75;0.73;;;;;;;21.28;100.00;96854.78;5061498;28;20049;-56
2023/07/29 10:33:26;;;;;;;0.93;0.60;;;;;;;20.94;98.45;96857.44;5063964;28;20588;-58
2023/07/29 10:35:54;;;;;;;1.45;0.80;;;;;;;21.07;98.31;96849.25;5061624;28;20559;-58
2023/07/29 10:38:23;;;;;;;1.27;0.60;;;;;;;21.23;96.04;96841.22;5053652;28;20614;-57
2023/07/29 10:40:56;;;;;;;2.28;0.82;;;;;;;21.39;93.82;96863.44;5028390;28;20037;-54
2023/07/29 10:43:34;;;;;;;2.75;0.82;;;;;;;21.41;95.49;96850.94;5031635;28;20052;-55
2023/07/29 10:46:21;;;;;;;3.95;0.90;;;;;;;21.53;93.94;96836.41;5030844;28;20051;-56
2023/07/29 10:48:51;;;;;;;1.35;0.80;;;;;;;21.52;90.17;96842.28;5048123;28;20044;-54
2023/07/29 10:51:34;;;;;;;1.55;0.80;;;;;;;21.57;87.19;96836.56;5060397;28;20419;-52
2023/07/29 10:54:02;;;;;;;1.58;0.90;;;;;;;21.66;87.14;96845.53;5060386;28;20486;-53
2023/07/29 10:56:31;;;;;;;1.85;0.85;;;;;;;21.82;90.82;96837.47;5062060;28;20032;-54
2023/07/29 10:59:16;;;;;;;2.85;0.80;;;;;;;21.89;89.00;96853.44;5060966;28;20045;-55
2023/07/29 11:02:17;;;;;;;1.08;0.60;;;;;;;21.70;87.47;96849.25;5059208;28;20098;-52
2023/07/29 11:04:50;;;;;;;0.88;0.60;;;;;;;21.50;88.88;96839.88;5029500;28;20061;-55
2023/07/29 11:07:17;;;;;;;1.63;0.70;;;;;;;21.51;86.10;96835.97;5031869;28;20798;-57
2023/07/29 11:10:06;;;;;;;1.83;0.80;;;;;;;21.63;84.76;96845.44;5046743;28;20597;-52
2023/07/29 11:12:56;;;;;;;1.52;0.60;;;;;;;21.63;86.79;96837.16;5062686;28;20401;-55
2023/07/29 11:15:26;;;;;;;1.77;0.70;;;;;;;21.66;84.33;96837.28;5061150;28;20128;-55
2023/07/29 11:17:55;;;;;;;1.37;0.60;;;;;;;21.96;83.47;96837.19;5057574;28;20040;-53
2023/07/29 11:20:24;;;;;;;1.67;0.70;;;;;;;22.08;85.07;96821.81;5060048;28;20046;-54
2023/07/29 11:22:50;;;;;;;1.70;0.70;;;;;;;21.92;81.47;96835.44;5060138;28;20059;-53
2023/07/29 11:25:18;;;;;;;1.13;0.70;;;;;;;22.24;81.94;96821.97;5062589;28;20036;-54
2023/07/29 11:27:46;;;;;;;2.20;0.82;;;;;;;22.29;78.23;96815.44;5062272;28;20040;-56
2023/07/29 11:30:14;;;;;;;1.20;0.60;;;;;;;22.30;79.52;96814.28;5059600;28;20055;-57